Blanchester, Ohio
Current Conditions -  °F | °C
As of 4:54 PM on Friday 24 Oct 2014 (Local Time) from KILN Reporting Station
Haze Haze  
Wind Chill: 64°   Ceiling: Unl
Heat Index: 64°   Visibility: 4mi
Dew Point: 38°   Wind: 5mph
Humidity: 38%   Direction: 260°W
Pressure: 30.03"   Gusts: NA
Location:  39.29°N, 83.99°W
Report Text: KILN 242054Z AUTO 26004KT 4SM HZ CLR 18/03 A3003 RMK AO2 SLP176 T01780033 56015
Loading
Personal Weather Stations






























Interactive Weather Map
Tropical Storm Tracking
New forecast layout! Learn more

10-Day Weather Forecast

Advertisements
Track Severe Weather on mobile